createdAt,value
2019-03-12T00:01:42.837Z,12.70
2019-03-12T00:06:44.905Z,13.50
2019-03-12T00:11:46.980Z,11.23
2019-03-12T00:16:49.056Z,11.03
2019-03-12T00:21:51.081Z,11.10
2019-03-12T00:26:53.141Z,12.53
2019-03-12T00:31:55.205Z,10.77
2019-03-12T00:36:57.361Z,12.93
2019-03-12T00:41:59.439Z,12.43
2019-03-12T00:47:01.469Z,11.40
2019-03-12T00:52:03.575Z,13.83
2019-03-12T00:57:05.654Z,11.47
2019-03-12T01:02:07.739Z,11.30
2019-03-12T01:07:09.825Z,12.23
2019-03-12T01:12:11.879Z,13.37
2019-03-12T01:17:13.981Z,12.90
2019-03-12T01:22:16.058Z,11.27
2019-03-12T01:27:18.139Z,9.87
2019-03-12T01:32:20.198Z,9.53
2019-03-12T01:37:22.224Z,8.40
2019-03-12T01:42:24.249Z,9.87
2019-03-12T01:47:26.321Z,10.13
2019-03-12T01:52:28.411Z,9.37
2019-03-12T01:57:30.483Z,12.30
2019-03-12T02:02:32.569Z,9.77
2019-03-12T02:07:34.695Z,9.73
2019-03-12T02:12:36.755Z,8.90
2019-03-12T02:17:39.994Z,8.97
2019-03-12T02:22:42.031Z,10.53
2019-03-12T02:27:44.216Z,9.77
2019-03-12T02:32:46.319Z,10.77
2019-03-12T02:37:50.183Z,11.07
2019-03-12T02:42:52.246Z,9.23
2019-03-12T02:47:54.235Z,12.40
2019-03-12T02:52:56.301Z,11.70
2019-03-12T02:57:58.354Z,15.10
2019-03-12T03:03:00.408Z,15.77
2019-03-12T03:08:05.665Z,12.13
2019-03-12T03:13:07.718Z,13.53
2019-03-12T03:18:09.756Z,11.27
2019-03-12T03:23:11.798Z,10.20
2019-03-12T03:28:13.868Z,12.17
2019-03-12T03:33:15.916Z,9.73
2019-03-12T03:38:17.970Z,14.13
2019-03-12T03:43:20.038Z,10.77
2019-03-12T03:48:22.068Z,10.53
2019-03-12T03:53:24.165Z,11.33
2019-03-12T03:58:26.254Z,9.70
2019-03-12T04:03:28.284Z,10.60
2019-03-12T04:08:30.516Z,9.67
2019-03-12T04:13:32.555Z,10.83
2019-03-12T04:18:34.597Z,8.47
2019-03-12T04:23:36.657Z,7.77
2019-03-12T04:28:38.701Z,10.13
2019-03-12T04:34:16.441Z,7.90
2019-03-12T04:39:18.530Z,8.77
2019-03-12T04:44:20.608Z,9.67
2019-03-12T04:49:22.704Z,8.93
2019-03-12T04:54:24.790Z,9.23
2019-03-12T04:59:26.844Z,8.20
2019-03-12T05:04:28.960Z,8.17
2019-03-12T05:09:31.047Z,14.03
2019-03-12T05:14:33.848Z,8.57
2019-03-12T05:19:37.969Z,9.23
2019-03-12T05:24:39.992Z,9.63
2019-03-12T05:29:42.034Z,6.43
2019-03-12T05:34:46.571Z,6.03
2019-03-12T05:39:48.628Z,8.87
2019-03-12T05:44:50.747Z,8.80
2019-03-12T05:49:52.905Z,6.97
2019-03-12T05:54:54.995Z,5.20
2019-03-12T05:59:57.305Z,6.57
2019-03-12T06:04:59.389Z,6.47
2019-03-12T06:10:01.474Z,8.20
2019-03-12T06:15:06.537Z,5.33
2019-03-12T06:20:08.666Z,5.77
2019-03-12T06:25:11.106Z,8.17
2019-03-12T06:30:13.258Z,8.50
2019-03-12T06:35:23.937Z,5.27
2019-03-12T06:40:31.288Z,5.83
2019-03-12T06:45:55.519Z,10.70
2019-03-12T06:51:26.009Z,5.37
2019-03-12T06:56:41.730Z,6.17
2019-03-12T07:02:02.125Z,4.67
2019-03-12T07:07:32.888Z,5.10
2019-03-12T07:12:53.161Z,3.97
2019-03-12T07:18:10.563Z,4.73
2019-03-12T07:23:32.260Z,8.63
2019-03-12T07:28:52.534Z,3.63
2019-03-12T07:34:17.995Z,4.73
2019-03-12T07:39:26.276Z,6.13
2019-03-12T07:44:48.037Z,6.37
2019-03-12T07:50:18.533Z,4.80
2019-03-12T07:55:47.059Z,6.77
2019-03-12T08:00:58.052Z,4.87
2019-03-12T08:06:08.249Z,5.17
2019-03-12T08:11:20.958Z,4.10
2019-03-12T08:16:54.864Z,6.60
2019-03-12T08:22:34.476Z,5.30
2019-03-12T08:27:56.148Z,10.40
2019-03-12T08:33:35.708Z,4.30
2019-03-12T08:39:00.199Z,5.23
2019-03-12T08:44:20.594Z,6.93
2019-03-12T08:49:44.812Z,4.97
2019-03-12T08:55:09.035Z,5.60
2019-03-12T09:00:27.334Z,4.37
2019-03-12T09:05:57.794Z,4.57
2019-03-12T09:11:19.500Z,5.97
2019-03-12T09:16:39.671Z,6.70
2019-03-12T09:21:48.834Z,6.83
2019-03-12T09:27:37.885Z,5.03
2019-03-12T09:33:02.526Z,4.57
2019-03-12T09:38:12.548Z,6.60
2019-03-12T09:43:34.250Z,6.40
2019-03-12T09:49:04.703Z,14.50
2019-03-12T09:54:21.798Z,3.03
2019-03-12T09:59:46.252Z,3.53
2019-03-12T10:05:03.057Z,4.90
2019-03-12T10:10:31.175Z,6.47
2019-03-12T10:15:47.748Z,5.57
2019-03-12T10:20:57.100Z,4.13
2019-03-12T10:26:17.459Z,4.93
2019-03-12T10:31:37.564Z,3.60
2019-03-12T10:37:10.992Z,3.47
2019-03-12T10:42:06.509Z,2.93
2019-03-12T10:47:12.842Z,4.07
2019-03-12T10:52:14.948Z,4.50
2019-03-12T10:57:17.008Z,3.23
2019-03-12T11:02:19.152Z,5.13
2019-03-12T11:07:21.187Z,4.63
2019-03-12T11:12:23.259Z,5.00
2019-03-12T11:17:25.488Z,4.83
2019-03-12T11:22:27.575Z,5.40
2019-03-12T11:27:29.650Z,3.70
2019-03-12T11:32:31.695Z,7.50
2019-03-12T11:37:34.875Z,5.47
2019-03-12T11:42:37.077Z,6.70
2019-03-12T11:47:39.857Z,6.43
2019-03-12T11:52:52.530Z,8.57
2019-03-12T11:57:46.478Z,8.77
2019-03-12T12:02:59.361Z,9.80
2019-03-12T12:07:52.549Z,3.93
2019-03-12T12:12:54.604Z,7.23
2019-03-12T12:17:56.678Z,7.03
2019-03-12T12:23:01.323Z,8.67
2019-03-12T12:28:03.427Z,6.23
2019-03-12T12:33:05.491Z,7.77
2019-03-12T12:38:07.574Z,6.57
2019-03-12T12:43:09.680Z,7.90
2019-03-12T12:48:11.761Z,4.77
2019-03-12T12:53:13.847Z,6.23
2019-03-12T12:58:15.898Z,5.90
2019-03-12T13:03:17.960Z,6.70
2019-03-12T13:08:20.017Z,6.27
2019-03-12T13:13:22.165Z,6.73
2019-03-12T13:18:24.239Z,4.90
2019-03-12T13:23:26.312Z,4.83
2019-03-12T13:28:28.381Z,5.97
2019-03-12T13:33:30.430Z,4.37
2019-03-12T13:38:45.014Z,5.17
2019-03-12T13:43:38.925Z,9.23
2019-03-12T13:48:40.975Z,6.93
2019-03-12T13:53:43.055Z,6.63
2019-03-12T13:58:45.117Z,5.87
2019-03-12T14:03:47.412Z,5.27
2019-03-12T14:08:51.867Z,7.87
2019-03-12T14:13:53.927Z,7.60
2019-03-12T14:18:55.976Z,4.70
2019-03-12T14:24:03.096Z,5.40
2019-03-12T14:29:06.149Z,7.07
2019-03-12T14:34:08.177Z,9.13
2019-03-12T14:39:10.225Z,3.50
2019-03-12T14:44:12.274Z,4.90
2019-03-12T14:49:14.276Z,5.93
2019-03-12T14:54:16.378Z,7.47
2019-03-12T14:59:18.484Z,6.27
2019-03-12T15:04:20.585Z,5.23
2019-03-12T15:09:22.690Z,6.00
2019-03-12T15:14:24.780Z,4.63
2019-03-12T15:19:26.923Z,5.10
2019-03-12T15:24:29.309Z,6.90
2019-03-12T15:29:31.478Z,7.43
2019-03-12T15:34:33.565Z,8.03
2019-03-12T15:39:35.666Z,6.03
2019-03-12T15:44:37.716Z,7.00
2019-03-12T15:49:43.000Z,8.87
2019-03-12T15:54:43.826Z,7.87
2019-03-12T15:59:45.889Z,7.10
2019-03-12T16:04:47.973Z,6.67
2019-03-12T16:09:50.018Z,6.87
2019-03-12T16:14:52.100Z,6.37
2019-03-12T16:19:54.199Z,6.70
2019-03-12T16:24:56.240Z,6.80
2019-03-12T16:29:58.317Z,4.07
2019-03-12T16:35:00.380Z,4.33
2019-03-12T16:40:02.431Z,4.70
2019-03-12T16:45:05.234Z,4.13
2019-03-12T16:50:07.784Z,6.37
2019-03-12T16:55:09.991Z,5.73
2019-03-12T17:00:12.294Z,8.23
2019-03-12T17:05:14.570Z,4.47
2019-03-12T17:10:16.723Z,7.37
2019-03-12T17:15:18.982Z,5.47
2019-03-12T17:20:21.035Z,4.67
2019-03-12T17:25:23.110Z,4.90
2019-03-12T17:30:25.175Z,4.07
2019-03-12T17:35:27.360Z,6.00
2019-03-12T17:40:29.465Z,7.97
2019-03-12T17:45:31.534Z,7.50
2019-03-12T17:50:33.687Z,4.07
2019-03-12T17:55:35.782Z,4.67
2019-03-12T18:00:39.792Z,6.23
2019-03-12T18:05:41.885Z,7.27
2019-03-12T18:10:43.977Z,4.73
2019-03-12T18:15:46.114Z,5.40
2019-03-12T18:20:48.199Z,6.27
2019-03-12T18:25:50.373Z,5.20
2019-03-12T18:30:52.472Z,5.37
2019-03-12T18:35:54.503Z,6.67
2019-03-12T18:40:56.725Z,5.30
2019-03-12T18:45:58.843Z,5.40
2019-03-12T18:51:00.876Z,6.67
2019-03-12T18:56:07.351Z,6.47
2019-03-12T19:01:11.208Z,4.07
2019-03-12T19:06:13.276Z,4.97
2019-03-12T19:11:19.069Z,6.73
2019-03-12T19:16:21.158Z,4.70
2019-03-12T19:21:23.322Z,4.47
2019-03-12T19:26:26.727Z,5.53
2019-03-12T19:32:03.884Z,4.53
2019-03-12T19:37:06.184Z,5.50
2019-03-12T19:42:11.800Z,5.57
2019-03-12T19:47:14.026Z,3.93
2019-03-12T19:52:16.107Z,2.93
2019-03-12T19:57:18.195Z,4.07
2019-03-12T20:02:20.609Z,3.63
2019-03-12T20:07:22.687Z,5.23
2019-03-12T20:13:15.803Z,5.33
2019-03-12T20:19:08.954Z,4.30
2019-03-12T20:24:47.729Z,3.43
2019-03-12T20:30:27.766Z,5.97
2019-03-12T20:36:16.517Z,3.80
2019-03-12T20:41:55.360Z,3.40
2019-03-12T20:47:35.019Z,3.17
2019-03-12T20:53:34.421Z,3.73
2019-03-12T20:59:29.141Z,3.93
2019-03-12T21:05:15.224Z,4.37
2019-03-12T21:11:05.354Z,4.07
2019-03-12T21:16:53.550Z,3.43
2019-03-12T21:22:34.906Z,4.30
2019-03-12T21:28:18.629Z,4.17
2019-03-12T21:33:20.750Z,6.07
2019-03-12T21:38:24.761Z,2.73
2019-03-12T21:43:26.870Z,2.83
2019-03-12T21:48:28.940Z,2.37
2019-03-12T21:53:31.028Z,7.67
2019-03-12T21:58:33.094Z,2.17
2019-03-12T22:03:35.237Z,5.27
2019-03-12T22:08:37.362Z,2.87
2019-03-12T22:13:39.540Z,2.67
2019-03-12T22:18:41.664Z,3.03
2019-03-12T22:23:46.500Z,3.17
2019-03-12T22:28:48.594Z,4.97
2019-03-12T22:33:50.944Z,2.50
2019-03-12T22:38:52.983Z,2.53
2019-03-12T22:43:55.250Z,3.67
2019-03-12T22:48:57.300Z,4.67
2019-03-12T22:53:59.395Z,1.53
2019-03-12T22:59:01.528Z,2.53
2019-03-12T23:04:03.827Z,1.90
2019-03-12T23:09:06.255Z,4.30
2019-03-12T23:14:08.361Z,2.10
2019-03-12T23:19:10.526Z,2.90
2019-03-12T23:24:12.611Z,5.30
2019-03-12T23:29:14.654Z,2.67
2019-03-12T23:34:16.678Z,4.47
2019-03-12T23:39:18.774Z,3.13
2019-03-12T23:44:20.867Z,2.77
2019-03-12T23:49:23.187Z,2.80
2019-03-12T23:54:25.349Z,1.53
2019-03-12T23:59:27.346Z,1.40
